Time;durP1;ratioP1;P1;durP2;ratioP2;P2;SDS_P1;SDS_P2;PMS_P1;PMS_P2;Temp;Humidity;BMP_temperature;BMP_pressure;BME280_temperature;BME280_humidity;BME280_pressure;Samples;Min_cycle;Max_cycle;Signal;HPM_P1;HPM_P2
2023/02/03 00:01:52;;;;;;;6.75;3.90;;;;;;;10.18;63.57;98413.22;4945828;28;20037;-75
2023/02/03 00:04:17;;;;;;;7.03;3.95;;;;;;;10.17;63.63;98412.44;4947096;28;20381;-75
2023/02/03 00:06:43;;;;;;;7.13;3.63;;;;;;;10.21;63.38;98421.44;4938851;28;20033;-75
2023/02/03 00:09:09;;;;;;;5.30;3.47;;;;;;;10.14;63.28;98418.03;4949457;28;20116;-75
2023/02/03 00:11:34;;;;;;;4.13;3.30;;;;;;;10.16;63.31;98412.63;4928648;28;20018;-75
2023/02/03 00:14:04;;;;;;;5.30;3.63;;;;;;;10.17;63.34;98406.44;4947596;28;20497;-75
2023/02/03 00:16:29;;;;;;;4.40;2.78;;;;;;;10.19;63.33;98413.00;4947600;28;20734;-75
2023/02/03 00:18:55;;;;;;;5.45;3.05;;;;;;;10.17;63.15;98420.25;4936715;28;20124;-76
2023/02/03 00:21:20;;;;;;;6.03;3.45;;;;;;;10.16;63.62;98416.06;4946918;28;20034;-76
2023/02/03 00:23:45;;;;;;;5.85;3.50;;;;;;;10.23;63.52;98424.63;4955876;28;20037;-76
2023/02/03 00:26:15;;;;;;;5.15;3.05;;;;;;;10.19;63.75;98427.84;4913352;28;20511;-74
2023/02/03 00:28:41;;;;;;;5.90;2.88;;;;;;;10.19;64.07;98423.41;4943532;28;20202;-75
2023/02/03 00:31:18;;;;;;;4.05;3.08;;;;;;;10.31;63.61;98426.16;4928059;28;20378;-76
2023/02/03 00:33:44;;;;;;;4.15;2.83;;;;;;;10.21;63.64;98423.22;4942927;28;20060;-75
2023/02/03 00:36:11;;;;;;;5.35;3.10;;;;;;;10.29;63.84;98426.34;4929667;28;20034;-75
2023/02/03 00:38:36;;;;;;;4.85;2.80;;;;;;;10.13;64.19;98424.28;4943574;28;20120;-75
2023/02/03 00:41:01;;;;;;;4.35;2.50;;;;;;;10.21;64.06;98413.63;4919445;28;20568;-76
2023/02/03 00:43:28;;;;;;;4.80;2.88;;;;;;;10.21;64.18;98411.00;4939274;28;20117;-76
2023/02/03 00:45:53;;;;;;;6.00;2.83;;;;;;;10.18;63.99;98403.63;4910737;28;20036;-76
2023/02/03 00:48:19;;;;;;;4.22;2.70;;;;;;;10.15;64.21;98388.44;4920790;28;20041;-75
2023/02/03 00:50:47;;;;;;;8.07;3.35;;;;;;;9.95;65.03;98380.75;4927068;28;20818;-75
2023/02/03 00:53:13;;;;;;;5.00;3.38;;;;;;;10.03;65.17;98390.13;4946458;28;20345;-75
2023/02/03 00:55:39;;;;;;;5.57;3.20;;;;;;;10.10;64.71;98383.06;4947061;28;20025;-75
2023/02/03 00:58:04;;;;;;;4.95;2.65;;;;;;;10.04;64.51;98383.88;4930939;28;20040;-75
2023/02/03 01:00:29;;;;;;;4.13;2.47;;;;;;;10.10;64.76;98383.84;4922318;28;20102;-75
2023/02/03 01:02:55;;;;;;;4.55;2.58;;;;;;;10.05;65.09;98391.47;4942426;28;20037;-74
2023/02/03 01:05:20;;;;;;;4.80;2.60;;;;;;;10.06;64.62;98400.09;4925146;28;20033;-75
2023/02/03 01:07:45;;;;;;;3.63;2.58;;;;;;;10.13;64.23;98404.25;4933691;28;20345;-76
2023/02/03 01:10:11;;;;;;;5.35;2.80;;;;;;;10.14;64.46;98399.81;4921548;28;20116;-75
2023/02/03 01:12:36;;;;;;;4.70;2.70;;;;;;;10.13;63.91;98388.63;4928710;28;20120;-75
2023/02/03 01:15:02;;;;;;;4.90;2.63;;;;;;;10.15;64.39;98396.22;4926349;28;20034;-75
2023/02/03 01:17:27;;;;;;;3.25;2.22;;;;;;;10.08;64.45;98398.09;4946583;28;20029;-75
2023/02/03 01:19:53;;;;;;;5.35;2.30;;;;;;;10.15;63.97;98398.03;4947303;28;21012;-75
2023/02/03 01:22:18;;;;;;;3.58;2.85;;;;;;;10.08;64.26;98392.88;4911039;28;20033;-76
2023/02/03 01:24:44;;;;;;;2.85;2.03;;;;;;;10.28;64.37;98395.31;4930300;28;20082;-75
2023/02/03 01:27:09;;;;;;;4.15;2.65;;;;;;;10.25;64.16;98385.34;4929743;28;20603;-76
2023/02/03 01:29:35;;;;;;;4.45;3.00;;;;;;;10.24;64.07;98366.31;4919849;28;20034;-76
2023/02/03 01:32:00;;;;;;;4.88;2.72;;;;;;;9.91;64.98;98361.38;4944767;28;20042;-75
2023/02/03 01:34:25;;;;;;;3.03;2.17;;;;;;;10.01;64.76;98359.09;4947612;28;20033;-75
2023/02/03 01:36:51;;;;;;;3.03;2.28;;;;;;;10.12;64.65;98348.00;4944108;28;20037;-76
2023/02/03 01:39:16;;;;;;;3.60;1.95;;;;;;;10.19;64.36;98336.75;4928338;28;20038;-76
2023/02/03 01:41:42;;;;;;;3.10;1.90;;;;;;;9.94;64.72;98325.31;4946617;28;20533;-75
2023/02/03 01:44:32;;;;;;;4.43;2.55;;;;;;;9.74;66.18;98304.66;4928772;28;20052;-75
2023/02/03 01:46:57;;;;;;;3.03;2.30;;;;;;;9.75;66.11;98290.63;4938973;28;20327;-75
2023/02/03 01:49:26;;;;;;;3.30;2.08;;;;;;;9.85;66.01;98271.97;4942261;28;20029;-75
2023/02/03 01:51:53;;;;;;;3.60;2.75;;;;;;;9.81;66.02;98289.00;4948995;28;20295;-75
2023/02/03 01:54:22;;;;;;;2.85;2.13;;;;;;;9.94;65.70;98309.72;4932700;28;20562;-74
2023/02/03 01:56:52;;;;;;;4.53;2.42;;;;;;;10.01;65.57;98332.28;4904937;28;20036;-75
2023/02/03 01:59:17;;;;;;;2.88;2.15;;;;;;;9.83;65.83;98327.81;4937613;28;20808;-75
2023/02/03 02:01:43;;;;;;;2.70;2.05;;;;;;;9.70;66.31;98320.91;4948038;28;20026;-73
2023/02/03 02:04:09;;;;;;;3.10;2.20;;;;;;;9.97;65.70;98318.09;4945322;28;20045;-75
2023/02/03 02:06:34;;;;;;;2.90;2.08;;;;;;;9.76;66.02;98301.84;4952353;28;20041;-74
2023/02/03 02:09:00;;;;;;;2.80;2.15;;;;;;;9.86;65.87;98291.75;4946976;28;20046;-74
2023/02/03 02:11:26;;;;;;;2.83;2.15;;;;;;;9.84;66.11;98295.59;4943549;28;20034;-73
2023/02/03 02:13:54;;;;;;;2.58;1.98;;;;;;;9.73;66.44;98297.03;4949465;28;20025;-74
2023/02/03 02:16:31;;;;;;;2.40;1.98;;;;;;;9.84;66.27;98298.19;4950065;28;20618;-74
2023/02/03 02:19:12;;;;;;;3.38;2.10;;;;;;;10.04;65.43;98288.44;4932412;28;20561;-74
2023/02/03 02:22:08;;;;;;;3.55;2.00;;;;;;;10.09;65.69;98292.97;4948083;28;20025;-75
2023/02/03 02:24:53;;;;;;;;;;;;;;;10.00;65.85;98305.47;4951746;28;20068;-75
2023/02/03 02:27:55;;;;;;;3.97;2.70;;;;;;;10.02;65.97;98302.66;4950152;28;20214;-74
2023/02/03 02:30:42;;;;;;;5.05;3.25;;;;;;;9.94;65.80;98295.91;4937526;28;20045;-74
2023/02/03 02:33:12;;;;;;;4.25;2.30;;;;;;;9.89;65.47;98282.75;4949979;28;20038;-74
2023/02/03 02:35:56;;;;;;;3.42;2.33;;;;;;;10.02;65.22;98285.22;4930796;28;20034;-75
2023/02/03 02:38:41;;;;;;;4.95;2.83;;;;;;;9.78;66.06;98288.63;4947039;28;20021;-74
2023/02/03 02:41:17;;;;;;;3.38;2.30;;;;;;;9.98;65.53;98293.69;4948636;28;20033;-74
2023/02/03 02:43:58;;;;;;;4.55;2.55;;;;;;;10.10;64.86;98292.75;4942704;28;20775;-75
2023/02/03 02:46:29;;;;;;;3.60;2.65;;;;;;;9.85;65.68;98299.78;4944648;28;20029;-75
2023/02/03 02:49:00;;;;;;;3.85;2.47;;;;;;;10.01;65.05;98298.47;4931333;28;20037;-75
2023/02/03 02:51:28;;;;;;;4.47;2.22;;;;;;;9.88;65.59;98291.53;4944058;28;20033;-74
2023/02/03 02:53:56;;;;;;;4.03;2.65;;;;;;;9.87;65.57;98274.34;4929637;28;20116;-75
2023/02/03 02:56:24;;;;;;;5.03;2.97;;;;;;;10.04;65.60;98288.44;4945776;28;20721;-75
2023/02/03 02:58:49;;;;;;;4.88;2.80;;;;;;;9.92;65.45;98296.13;4944051;28;20136;-75
2023/02/03 03:01:15;;;;;;;3.90;2.90;;;;;;;9.89;65.16;98296.53;4932921;28;20025;-74
2023/02/03 03:03:43;;;;;;;5.40;3.45;;;;;;;9.92;65.12;98313.50;4931774;28;20108;-75
2023/02/03 03:06:16;;;;;;;5.50;3.00;;;;;;;9.99;65.34;98324.69;4933661;28;20855;-74
2023/02/03 03:08:54;;;;;;;4.22;2.90;;;;;;;10.03;64.93;98335.47;4945055;28;20937;-74
2023/02/03 03:11:20;;;;;;;5.82;2.88;;;;;;;9.75;65.53;98334.84;4932645;28;20036;-74
2023/02/03 03:13:51;;;;;;;3.63;2.85;;;;;;;9.89;65.35;98334.78;4926694;28;20030;-75
2023/02/03 03:16:23;;;;;;;8.65;3.80;;;;;;;9.93;65.47;98338.53;4933429;28;20150;-75
2023/02/03 03:18:55;;;;;;;4.25;2.80;;;;;;;9.81;65.93;98330.59;4932630;28;20265;-74
2023/02/03 03:21:27;;;;;;;5.97;2.92;;;;;;;9.97;65.66;98344.91;4928669;28;20149;-74
2023/02/03 03:23:55;;;;;;;5.00;3.08;;;;;;;10.03;64.79;98364.09;4957022;28;20040;-75
2023/02/03 03:26:43;;;;;;;5.28;3.63;;;;;;;10.06;65.02;98366.28;4928591;28;20765;-74
2023/02/03 03:29:16;;;;;;;6.43;3.80;;;;;;;9.82;65.66;98379.03;4930253;28;20037;-73
2023/02/03 03:31:42;;;;;;;5.32;3.15;;;;;;;9.97;64.96;98385.75;4950006;28;20056;-74
2023/02/03 03:34:09;;;;;;;5.53;2.85;;;;;;;10.08;65.15;98374.66;4932920;28;20025;-74
2023/02/03 03:36:57;;;;;;;3.30;2.80;;;;;;;10.19;64.56;98384.38;4948538;28;20037;-74
2023/02/03 03:39:35;;;;;;;4.90;3.30;;;;;;;10.09;64.88;98389.25;4927417;28;20666;-75
2023/02/03 03:42:11;;;;;;;5.13;3.40;;;;;;;10.08;64.46;98385.88;4946751;28;20579;-73
2023/02/03 03:44:42;;;;;;;3.70;3.13;;;;;;;9.97;64.27;98360.50;4932574;28;20056;-75
2023/02/03 03:47:40;;;;;;;4.07;2.92;;;;;;;10.17;64.14;98362.19;4946889;28;20152;-75
2023/02/03 03:50:10;;;;;;;5.90;3.72;;;;;;;10.10;64.22;98354.44;4928530;28;20044;-73
2023/02/03 03:52:36;;;;;;;5.47;3.20;;;;;;;10.00;64.19;98335.88;4949454;28;20419;-74
2023/02/03 03:55:07;;;;;;;4.28;3.03;;;;;;;10.20;63.74;98325.34;4942106;28;20017;-74
2023/02/03 03:57:40;;;;;;;3.92;3.33;;;;;;;10.29;63.52;98344.88;4927062;28;20117;-75
2023/02/03 04:00:08;;;;;;;6.75;3.55;;;;;;;10.12;63.64;98321.97;4922286;28;20101;-75
2023/02/03 04:02:37;;;;;;;4.70;3.17;;;;;;;10.22;63.55;98331.13;4913423;28;20040;-74
2023/02/03 04:05:03;;;;;;;4.82;3.70;;;;;;;10.15;63.88;98336.38;4930449;28;20095;-73
2023/02/03 04:07:40;;;;;;;3.78;2.83;;;;;;;10.37;63.21;98328.22;4948485;28;20060;-75
2023/02/03 04:10:30;;;;;;;7.72;3.25;;;;;;;10.24;63.34;98309.06;4938269;28;20630;-74
2023/02/03 04:12:55;;;;;;;5.93;3.08;;;;;;;10.22;63.40;98305.09;4927865;28;20052;-74
2023/02/03 04:15:20;;;;;;;6.38;4.00;;;;;;;10.03;63.80;98305.03;4932026;28;20044;-74
2023/02/03 04:17:46;;;;;;;6.60;3.35;;;;;;;10.18;63.47;98319.53;4948958;28;20025;-75
2023/02/03 04:20:11;;;;;;;8.18;3.63;;;;;;;10.23;63.18;98332.69;4940588;28;20037;-77
2023/02/03 04:22:37;;;;;;;6.72;3.85;;;;;;;10.28;62.98;98349.28;4928939;28;20021;-75
2023/02/03 04:25:02;;;;;;;5.43;3.08;;;;;;;10.17;63.46;98336.94;4931433;28;20703;-74
2023/02/03 04:27:28;;;;;;;7.55;4.13;;;;;;;10.10;63.65;98344.03;4913985;28;20688;-76
2023/02/03 04:29:53;;;;;;;4.25;3.05;;;;;;;10.25;63.13;98335.91;4944684;28;20029;-75
2023/02/03 04:32:18;;;;;;;6.72;3.67;;;;;;;10.15;64.03;98338.97;4916320;28;20727;-74
2023/02/03 04:34:44;;;;;;;5.55;3.75;;;;;;;10.01;64.22;98324.50;4949650;28;20490;-75
2023/02/03 04:37:10;;;;;;;7.32;3.80;;;;;;;10.15;63.64;98315.56;4930275;28;20045;-75
2023/02/03 04:39:35;;;;;;;4.20;3.58;;;;;;;10.08;63.72;98335.63;4939900;28;20108;-75
2023/02/03 04:42:01;;;;;;;4.35;3.10;;;;;;;10.10;64.01;98339.59;4921206;28;20732;-76
2023/02/03 04:44:26;;;;;;;5.25;4.07;;;;;;;10.08;63.97;98344.22;4933334;28;20556;-76
2023/02/03 04:46:51;;;;;;;5.45;3.63;;;;;;;10.21;63.77;98338.13;4901181;28;20067;-76
2023/02/03 04:49:17;;;;;;;4.15;3.58;;;;;;;10.21;63.89;98350.34;4938812;28;20033;-75
2023/02/03 04:51:45;;;;;;;5.43;3.50;;;;;;;10.15;64.30;98354.59;4919782;28;20034;-74
2023/02/03 04:54:11;;;;;;;4.60;3.63;;;;;;;10.23;63.96;98351.72;4935082;28;20116;-76
2023/02/03 04:56:36;;;;;;;6.30;3.80;;;;;;;10.22;63.58;98363.13;4943808;28;20493;-76
2023/02/03 04:59:02;;;;;;;6.13;3.67;;;;;;;10.33;63.89;98358.28;4929292;28;20060;-75
2023/02/03 05:01:27;;;;;;;4.30;3.30;;;;;;;10.23;64.18;98354.34;4947030;28;20029;-76
2023/02/03 05:03:53;;;;;;;4.32;3.25;;;;;;;10.15;64.72;98343.41;4931890;28;20347;-76
2023/02/03 05:06:34;;;;;;;5.38;3.42;;;;;;;10.20;64.49;98322.72;4936514;28;20021;-76
2023/02/03 05:09:05;;;;;;;6.63;3.33;;;;;;;10.17;64.08;98330.97;4936741;28;20068;-76
2023/02/03 05:11:31;;;;;;;6.20;4.03;;;;;;;10.22;64.36;98325.91;4945486;28;20091;-75
2023/02/03 05:13:56;;;;;;;3.83;2.63;;;;;;;10.17;64.16;98326.53;4914548;28;20033;-75
2023/02/03 05:16:22;;;;;;;5.32;2.60;;;;;;;10.18;64.64;98322.94;4931798;28;20725;-75
2023/02/03 05:18:47;;;;;;;4.78;3.80;;;;;;;10.09;65.15;98332.81;4946642;28;20184;-75
2023/02/03 05:21:13;;;;;;;5.53;3.38;;;;;;;10.21;64.22;98325.13;4913346;28;20068;-76
2023/02/03 05:23:38;;;;;;;4.75;3.30;;;;;;;10.10;64.80;98318.78;4947490;28;20076;-75
2023/02/03 05:26:04;;;;;;;4.25;2.95;;;;;;;10.17;64.55;98315.34;4909272;28;20856;-76
2023/02/03 05:28:29;;;;;;;5.68;3.05;;;;;;;10.19;64.15;98314.09;4944758;28;20033;-76
2023/02/03 05:31:00;;;;;;;3.45;2.80;;;;;;;10.18;64.96;98301.31;4949497;28;20084;-76
2023/02/03 05:33:26;;;;;;;3.83;2.88;;;;;;;10.06;65.27;98298.63;4936298;28;20033;-75
2023/02/03 05:35:51;;;;;;;6.20;3.00;;;;;;;10.09;65.10;98311.19;4921009;28;20026;-76
2023/02/03 05:38:16;;;;;;;5.63;3.50;;;;;;;10.04;65.37;98317.06;4944096;28;20026;-75
2023/02/03 05:43:27;;;;;;;4.60;3.10;;;;;;;10.00;65.71;98308.06;4948850;28;20462;-75
2023/02/03 05:45:52;;;;;;;5.28;3.80;;;;;;;10.06;64.84;98293.41;4922675;28;20618;-76
2023/02/03 05:48:17;;;;;;;5.72;3.17;;;;;;;10.13;64.97;98300.16;4933769;28;20033;-76
2023/02/03 05:50:43;;;;;;;4.57;2.80;;;;;;;10.02;65.49;98290.44;4951610;28;20472;-75
2023/02/03 05:53:08;;;;;;;5.63;3.20;;;;;;;9.90;65.76;98292.94;4928792;28;20819;-76
2023/02/03 05:55:34;;;;;;;6.55;3.65;;;;;;;10.01;65.33;98312.25;4936337;28;20847;-74
2023/02/03 05:58:00;;;;;;;3.92;2.88;;;;;;;9.90;65.59;98311.16;4948380;28;20193;-76
2023/02/03 06:00:26;;;;;;;3.63;2.85;;;;;;;10.05;65.69;98312.63;4950449;28;20331;-76
2023/02/03 06:02:52;;;;;;;3.72;3.15;;;;;;;9.82;66.14;98321.00;4918060;28;20760;-76
2023/02/03 06:05:18;;;;;;;4.78;3.47;;;;;;;10.02;65.45;98320.84;4933415;28;20100;-75
2023/02/03 06:07:43;;;;;;;3.55;2.63;;;;;;;9.89;66.13;98321.78;4932994;28;20033;-76
2023/02/03 06:10:09;;;;;;;5.15;3.28;;;;;;;9.75;66.39;98327.06;4950205;28;20033;-75
2023/02/03 06:12:36;;;;;;;5.03;3.10;;;;;;;9.84;66.22;98332.00;4948774;28;20037;-74
2023/02/03 06:15:01;;;;;;;5.20;3.20;;;;;;;9.85;65.81;98321.41;4944367;28;20037;-76
2023/02/03 06:17:27;;;;;;;4.78;2.88;;;;;;;10.00;65.80;98317.69;4936923;28;20863;-76
2023/02/03 06:19:52;;;;;;;5.25;2.97;;;;;;;9.99;66.04;98326.47;4931554;28;20049;-76
2023/02/03 06:22:18;;;;;;;4.53;3.47;;;;;;;10.05;65.63;98325.66;4948966;28;20055;-76
2023/02/03 06:24:45;;;;;;;4.95;2.83;;;;;;;10.06;65.33;98327.25;4944789;28;20513;-76
2023/02/03 06:27:10;;;;;;;4.00;3.00;;;;;;;10.10;65.15;98325.81;4934413;28;20041;-75
2023/02/03 06:29:36;;;;;;;5.18;3.10;;;;;;;10.09;64.90;98332.00;4934111;28;20179;-74
2023/02/03 06:32:01;;;;;;;4.57;3.03;;;;;;;9.96;65.99;98332.13;4926044;28;20042;-76
2023/02/03 06:34:26;;;;;;;4.68;3.15;;;;;;;9.99;65.37;98321.28;4949152;28;20040;-76
2023/02/03 06:36:52;;;;;;;4.28;3.05;;;;;;;10.04;65.72;98319.66;4918086;28;20036;-75
2023/02/03 06:39:18;;;;;;;3.75;2.58;;;;;;;9.98;65.74;98304.88;4940676;28;20222;-76
2023/02/03 06:41:43;;;;;;;2.90;2.47;;;;;;;10.10;65.17;98312.78;4909565;28;20029;-76
2023/02/03 06:44:08;;;;;;;3.75;2.92;;;;;;;10.06;65.74;98322.84;4924930;28;20041;-74
2023/02/03 06:46:34;;;;;;;4.30;2.95;;;;;;;9.93;66.10;98317.72;4943896;28;20033;-76
2023/02/03 06:48:59;;;;;;;3.67;2.47;;;;;;;9.94;66.38;98314.91;4930085;28;20034;-76
2023/02/03 06:51:25;;;;;;;3.20;2.58;;;;;;;9.87;66.43;98306.38;4945162;28;20030;-76
2023/02/03 06:53:50;;;;;;;3.03;2.67;;;;;;;9.85;66.51;98290.19;4928542;28;20703;-76
2023/02/03 06:56:15;;;;;;;2.78;2.35;;;;;;;9.89;66.36;98285.34;4913700;28;20176;-76
2023/02/03 06:58:41;;;;;;;3.25;2.60;;;;;;;9.87;66.77;98287.34;4928422;28;20643;-76
2023/02/03 07:01:07;;;;;;;3.60;2.78;;;;;;;9.70;67.04;98295.69;4928535;28;20120;-76
2023/02/03 07:03:32;;;;;;;4.72;2.88;;;;;;;9.70;66.66;98295.69;4914473;28;20180;-75
2023/02/03 07:05:57;;;;;;;3.95;2.72;;;;;;;9.84;67.30;98290.38;4942389;28;20256;-76
2023/02/03 07:08:22;;;;;;;3.85;2.67;;;;;;;9.85;66.76;98295.38;4944841;28;20267;-76
2023/02/03 07:10:52;;;;;;;3.67;2.63;;;;;;;9.98;66.18;98304.09;4941723;28;20385;-75
2023/02/03 07:13:18;;;;;;;3.63;3.10;;;;;;;9.92;66.28;98316.94;4943779;28;20450;-76
2023/02/03 07:15:43;;;;;;;3.63;2.58;;;;;;;9.86;66.57;98312.56;4928548;28;20284;-76
2023/02/03 07:18:08;;;;;;;3.47;2.70;;;;;;;10.01;66.02;98321.88;4946132;28;20582;-76
2023/02/03 07:20:34;;;;;;;4.63;2.95;;;;;;;9.99;65.87;98324.69;4944871;28;20217;-75
2023/02/03 07:22:59;;;;;;;3.58;2.63;;;;;;;10.02;65.85;98339.06;4935375;28;20176;-75
2023/02/03 07:25:25;;;;;;;4.18;2.65;;;;;;;10.08;65.95;98346.03;4927477;28;20316;-76
2023/02/03 07:27:50;;;;;;;4.50;3.15;;;;;;;9.99;65.88;98353.31;4925631;28;20666;-76
2023/02/03 07:30:15;;;;;;;4.13;2.97;;;;;;;9.83;66.57;98352.00;4907151;28;20208;-76
2023/02/03 07:32:45;;;;;;;3.42;2.60;;;;;;;9.98;65.90;98345.72;4924256;28;20200;-76
2023/02/03 07:35:10;;;;;;;3.92;2.67;;;;;;;9.74;66.61;98355.88;4904899;28;20149;-76
2023/02/03 07:37:36;;;;;;;3.45;2.50;;;;;;;9.63;67.10;98356.53;4914828;28;20626;-75
2023/02/03 07:40:01;;;;;;;4.85;2.45;;;;;;;9.90;66.54;98363.19;4940035;28;20293;-76
2023/02/03 07:42:27;;;;;;;3.28;2.60;;;;;;;10.00;65.96;98362.69;4907711;28;20246;-76
2023/02/03 07:44:52;;;;;;;4.53;2.90;;;;;;;9.82;66.51;98370.41;4944886;28;20758;-74
2023/02/03 07:47:17;;;;;;;4.20;2.85;;;;;;;9.69;66.79;98373.91;4906451;28;20777;-75
2023/02/03 07:49:42;;;;;;;5.50;3.17;;;;;;;9.98;65.74;98382.16;4940273;28;20175;-76
2023/02/03 07:52:08;;;;;;;3.60;2.70;;;;;;;9.98;65.79;98376.94;4913480;28;20248;-75
2023/02/03 07:54:33;;;;;;;4.13;2.35;;;;;;;10.12;65.58;98363.59;4946133;28;20180;-76
2023/02/03 07:56:59;;;;;;;3.17;2.75;;;;;;;10.07;65.06;98363.44;4924521;28;20501;-76
2023/02/03 07:59:24;;;;;;;3.55;2.58;;;;;;;9.91;65.99;98379.59;4935991;28;20238;-74
2023/02/03 08:01:49;;;;;;;2.53;2.33;;;;;;;9.87;66.48;98375.78;4924352;28;20280;-75
2023/02/03 08:04:16;;;;;;;3.20;2.08;;;;;;;10.05;65.96;98380.28;4927244;28;20703;-75
2023/02/03 08:06:42;;;;;;;4.43;2.55;;;;;;;10.07;65.73;98375.66;4927220;28;20195;-76
2023/02/03 08:09:07;;;;;;;3.05;1.85;;;;;;;10.00;66.07;98386.13;4926501;28;20325;-75
2023/02/03 08:11:33;;;;;;;2.90;2.13;;;;;;;9.93;66.08;98386.16;4944420;28;20265;-76
2023/02/03 08:13:58;;;;;;;3.05;2.10;;;;;;;9.98;66.32;98389.94;4921377;28;20323;-76
2023/02/03 08:16:23;;;;;;;3.78;2.33;;;;;;;9.93;66.29;98393.16;4926894;28;20740;-76
2023/02/03 08:18:49;;;;;;;5.45;2.17;;;;;;;10.06;65.89;98385.28;4904721;28;20192;-76
2023/02/03 08:21:14;;;;;;;2.88;2.47;;;;;;;10.04;65.65;98387.31;4906203;28;20275;-76
2023/02/03 08:23:39;;;;;;;3.35;2.17;;;;;;;9.96;66.59;98371.16;4920845;28;20215;-76
2023/02/03 08:26:05;;;;;;;3.45;2.60;;;;;;;9.80;67.07;98370.66;4938264;28;20188;-75
2023/02/03 08:28:30;;;;;;;2.47;2.00;;;;;;;9.83;67.12;98379.81;4916588;28;20193;-76
2023/02/03 08:30:56;;;;;;;3.88;2.90;;;;;;;9.88;66.92;98372.97;4933458;28;20267;-76
2023/02/03 08:33:22;;;;;;;4.32;2.50;;;;;;;9.99;66.26;98373.31;4927948;28;20195;-76
2023/02/03 08:35:48;;;;;;;3.70;2.35;;;;;;;9.93;67.05;98380.16;4930799;28;20253;-75
2023/02/03 08:38:14;;;;;;;4.38;2.45;;;;;;;10.00;66.76;98385.31;4940354;28;20592;-75
2023/02/03 08:40:40;;;;;;;3.75;2.33;;;;;;;9.82;67.02;98378.22;4920695;28;20191;-74
2023/02/03 08:43:05;;;;;;;3.10;2.03;;;;;;;9.92;66.85;98391.56;4917530;28;20387;-75
2023/02/03 08:45:30;;;;;;;4.10;2.42;;;;;;;10.07;66.66;98375.66;4911472;28;20407;-76
2023/02/03 08:47:56;;;;;;;5.07;2.50;;;;;;;10.02;66.33;98371.09;4923296;28;20623;-76
2023/02/03 08:50:21;;;;;;;3.40;2.38;;;;;;;10.09;66.23;98368.44;4920472;28;20651;-76
2023/02/03 08:52:47;;;;;;;6.43;3.35;;;;;;;9.93;66.66;98380.94;4937315;28;20306;-75
2023/02/03 08:55:12;;;;;;;3.03;2.22;;;;;;;9.94;66.49;98372.16;4927023;28;20173;-76
2023/02/03 08:57:40;;;;;;;3.90;3.00;;;;;;;10.15;65.51;98379.81;4912341;28;20203;-75
2023/02/03 09:00:06;;;;;;;3.22;2.85;;;;;;;10.24;66.29;98381.94;4943258;28;20270;-75
2023/02/03 09:02:31;;;;;;;3.90;2.67;;;;;;;10.26;66.14;98395.56;4932900;28;20206;-76
2023/02/03 09:04:57;;;;;;;5.25;3.30;;;;;;;10.19;66.06;98383.59;4942857;28;20203;-75
2023/02/03 09:07:22;;;;;;;4.10;2.70;;;;;;;10.28;66.10;98400.53;4922990;28;20222;-76
2023/02/03 09:09:47;;;;;;;3.97;2.53;;;;;;;10.23;66.20;98390.78;4943418;28;20225;-76
2023/02/03 09:12:13;;;;;;;2.72;2.13;;;;;;;10.27;66.41;98386.72;4918941;28;20268;-75
2023/02/03 09:14:38;;;;;;;2.97;2.40;;;;;;;10.17;65.93;98386.41;4936701;28;20260;-75
2023/02/03 09:17:04;;;;;;;2.75;2.47;;;;;;;9.93;67.10;98383.56;4943610;28;20349;-76
2023/02/03 09:19:30;;;;;;;3.30;2.50;;;;;;;10.05;66.63;98388.09;4930931;28;20808;-75
2023/02/03 09:21:56;;;;;;;3.45;2.58;;;;;;;10.10;66.57;98377.84;4928647;28;20174;-76
2023/02/03 09:24:22;;;;;;;2.85;2.40;;;;;;;10.03;66.97;98374.50;4898098;28;20258;-76
2023/02/03 09:26:47;;;;;;;2.60;2.00;;;;;;;10.15;66.48;98370.22;4914604;28;20229;-75
2023/02/03 09:29:12;;;;;;;4.53;2.30;;;;;;;10.14;66.77;98366.00;4911081;28;20224;-75
2023/02/03 09:31:38;;;;;;;2.47;2.22;;;;;;;10.21;66.53;98371.16;4924534;28;20192;-76
2023/02/03 09:34:03;;;;;;;3.95;2.25;;;;;;;10.15;66.45;98377.22;4930910;28;20216;-75
2023/02/03 09:36:28;;;;;;;3.33;1.90;;;;;;;10.15;66.50;98367.59;4926021;28;20231;-75
2023/02/03 09:38:55;;;;;;;2.47;1.90;;;;;;;10.05;66.92;98364.69;4931084;28;20157;-75
2023/02/03 09:41:43;;;;;;;3.42;2.15;;;;;;;10.20;66.62;98364.38;4941596;28;20680;-75
2023/02/03 09:44:21;;;;;;;4.53;3.20;;;;;;;10.23;66.44;98363.94;4944339;28;20706;-76
2023/02/03 09:46:50;;;;;;;5.13;2.13;;;;;;;10.06;67.17;98361.06;4930745;28;20647;-75
2023/02/03 09:49:39;;;;;;;2.45;2.22;;;;;;;10.23;66.76;98379.53;4940419;28;20195;-76
2023/02/03 09:52:13;;;;;;;2.47;1.77;;;;;;;9.99;67.56;98378.50;4930488;28;20629;-76
2023/02/03 09:54:45;;;;;;;2.78;1.80;;;;;;;9.91;67.21;98375.16;4947320;28;20299;-75
2023/02/03 09:57:21;;;;;;;3.72;1.85;;;;;;;10.17;67.32;98375.19;4939353;28;20200;-76
2023/02/03 09:59:47;;;;;;;2.72;2.00;;;;;;;10.10;67.26;98372.66;4924332;28;20184;-76
2023/02/03 10:02:23;;;;;;;3.72;1.30;;;;;;;10.36;66.50;98370.88;4912132;28;20195;-75
2023/02/03 10:04:53;;;;;;;1.92;1.02;;;;;;;10.22;66.38;98370.94;4946393;28;20563;-75
2023/02/03 10:07:29;;;;;;;2.35;1.25;;;;;;;10.48;65.63;98358.75;4914467;28;20602;-76
2023/02/03 10:10:10;;;;;;;2.08;1.23;;;;;;;10.23;66.22;98343.91;4929866;28;20195;-76
2023/02/03 10:12:45;;;;;;;1.42;0.90;;;;;;;10.28;65.94;98346.69;4920980;28;20204;-75
2023/02/03 10:15:42;;;;;;;1.25;0.65;;;;;;;10.62;65.55;98352.41;4928303;28;20292;-75
2023/02/03 10:18:11;;;;;;;1.45;0.77;;;;;;;10.46;65.43;98352.97;4940245;28;20363;-75
2023/02/03 10:20:48;;;;;;;1.40;0.90;;;;;;;10.48;65.63;98375.16;4911477;28;20161;-76
2023/02/03 10:23:34;;;;;;;1.90;0.95;;;;;;;10.44;66.04;98366.19;4943540;28;20215;-74
2023/02/03 10:26:07;;;;;;;1.00;0.85;;;;;;;10.41;66.08;98355.41;4928864;28;20215;-75
2023/02/03 10:28:38;;;;;;;1.60;0.90;;;;;;;10.29;66.32;98363.09;4910556;28;20204;-75
2023/02/03 10:31:12;;;;;;;1.63;1.00;;;;;;;10.19;66.43;98350.53;4945230;28;20346;-75
2023/02/03 10:33:37;;;;;;;1.63;0.80;;;;;;;9.87;67.15;98361.00;4930409;28;20547;-75
2023/02/03 10:36:27;;;;;;;0.98;0.80;;;;;;;10.09;66.94;98371.84;4943946;28;20195;-75
2023/02/03 10:39:26;;;;;;;1.83;1.10;;;;;;;10.36;66.42;98355.25;4926059;28;20610;-74
2023/02/03 10:41:52;;;;;;;0.93;0.68;;;;;;;10.15;66.96;98378.00;4920085;28;20172;-76
2023/02/03 10:44:17;;;;;;;2.40;0.88;;;;;;;10.27;66.30;98384.13;4927745;28;20278;-75
2023/02/03 10:46:44;;;;;;;0.52;0.52;;;;;;;10.22;66.60;98354.53;4923602;28;20021;-75
2023/02/03 10:49:11;;;;;;;0.90;0.75;;;;;;;10.41;66.50;98345.00;4929090;28;20202;-76
2023/02/03 10:51:40;;;;;;;1.15;0.77;;;;;;;10.41;66.00;98339.78;4929566;28;20181;-76
2023/02/03 10:54:25;;;;;;;1.25;0.60;;;;;;;10.39;65.80;98339.22;4930668;28;20134;-75
2023/02/03 10:56:50;;;;;;;0.82;0.77;;;;;;;10.00;67.22;98315.06;4928593;28;20199;-76
2023/02/03 10:59:28;;;;;;;1.30;0.50;;;;;;;10.15;67.07;98318.16;4950979;28;20419;-75
2023/02/03 11:01:54;;;;;;;0.70;0.43;;;;;;;10.35;66.00;98310.22;4946782;28;20195;-76
2023/02/03 11:04:28;;;;;;;1.67;1.13;;;;;;;10.52;65.45;98309.66;4928601;28;21013;-76
2023/02/03 11:07:02;;;;;;;0.70;0.70;;;;;;;10.57;65.84;98318.38;4928991;28;20261;-75
2023/02/03 11:09:38;;;;;;;0.75;0.52;;;;;;;10.63;65.64;98312.34;4914841;28;20343;-76
2023/02/03 11:12:15;;;;;;;1.25;0.80;;;;;;;10.51;65.35;98319.28;4945152;28;20215;-75
2023/02/03 11:14:46;;;;;;;1.63;0.88;;;;;;;10.54;65.13;98307.63;4916764;28;20715;-76
2023/02/03 11:17:19;;;;;;;1.50;1.25;;;;;;;10.38;66.14;98299.34;4912000;28;20588;-74
2023/02/03 11:19:46;;;;;;;0.90;0.70;;;;;;;10.38;66.03;98309.75;4924783;28;20281;-75
2023/02/03 11:22:20;;;;;;;1.00;0.90;;;;;;;10.22;66.24;98316.28;4945110;28;20122;-74
2023/02/03 11:24:45;;;;;;;0.80;0.68;;;;;;;10.32;65.83;98309.84;4901975;28;20263;-76
2023/02/03 11:27:14;;;;;;;1.48;0.65;;;;;;;10.24;66.30;98319.47;4927902;28;20289;-75
2023/02/03 11:29:43;;;;;;;1.02;0.77;;;;;;;10.44;65.87;98310.72;4944794;28;20393;-76
2023/02/03 11:32:35;;;;;;;1.88;1.20;;;;;;;10.42;65.55;98303.13;4936816;28;20349;-75
2023/02/03 11:35:13;;;;;;;0.75;0.70;;;;;;;10.59;65.50;98303.38;4910291;28;20282;-75
2023/02/03 11:37:40;;;;;;;1.25;0.98;;;;;;;10.24;66.43;98297.84;4937547;28;20220;-74
2023/02/03 11:40:06;;;;;;;0.70;0.50;;;;;;;10.46;65.95;98300.91;4928098;28;20287;-75
2023/02/03 11:42:33;;;;;;;0.98;0.60;;;;;;;10.21;66.33;98304.31;4945825;28;20188;-75
2023/02/03 11:45:24;;;;;;;0.82;0.57;;;;;;;10.38;66.56;98314.19;4921360;28;20301;-74
2023/02/03 11:47:50;;;;;;;0.60;0.60;;;;;;;10.30;66.03;98307.44;4923952;28;20177;-75